sensor_id;sensor_type;location;lat;lon;timestamp;P1;durP1;ratioP1;P2;durP2;ratioP2
52964;SDS011;42923;53.220;6.528;2023-02-10T00:02:23;37.72;;;13.00;;
52964;SDS011;42923;53.220;6.528;2023-02-10T00:04:49;38.40;;;13.05;;
52964;SDS011;42923;53.220;6.528;2023-02-10T00:07:16;38.30;;;11.48;;
52964;SDS011;42923;53.220;6.528;2023-02-10T00:09:43;34.22;;;11.52;;
52964;SDS011;42923;53.220;6.528;2023-02-10T00:12:08;24.17;;;10.73;;
52964;SDS011;42923;53.220;6.528;2023-02-10T00:14:35;33.65;;;9.82;;
52964;SDS011;42923;53.220;6.528;2023-02-10T00:17:01;41.97;;;9.07;;
52964;SDS011;42923;53.220;6.528;2023-02-10T00:19:27;30.42;;;11.30;;
52964;SDS011;42923;53.220;6.528;2023-02-10T00:21:53;27.45;;;10.02;;
52964;SDS011;42923;53.220;6.528;2023-02-10T00:24:20;26.80;;;8.70;;
52964;SDS011;42923;53.220;6.528;2023-02-10T00:26:47;31.67;;;9.35;;
52964;SDS011;42923;53.220;6.528;2023-02-10T00:29:13;43.35;;;9.55;;
52964;SDS011;42923;53.220;6.528;2023-02-10T00:31:39;39.17;;;11.73;;
52964;SDS011;42923;53.220;6.528;2023-02-10T00:34:05;38.97;;;9.55;;
52964;SDS011;42923;53.220;6.528;2023-02-10T00:36:31;37.03;;;11.32;;
52964;SDS011;42923;53.220;6.528;2023-02-10T00:38:57;39.60;;;9.38;;
52964;SDS011;42923;53.220;6.528;2023-02-10T00:41:23;37.53;;;9.77;;
52964;SDS011;42923;53.220;6.528;2023-02-10T00:43:50;30.33;;;10.68;;
52964;SDS011;42923;53.220;6.528;2023-02-10T00:46:17;37.40;;;9.73;;
52964;SDS011;42923;53.220;6.528;2023-02-10T00:48:44;26.48;;;9.90;;
52964;SDS011;42923;53.220;6.528;2023-02-10T00:51:11;33.35;;;9.45;;
52964;SDS011;42923;53.220;6.528;2023-02-10T00:53:37;20.02;;;8.40;;
52964;SDS011;42923;53.220;6.528;2023-02-10T00:56:03;27.63;;;8.93;;
52964;SDS011;42923;53.220;6.528;2023-02-10T00:58:29;31.77;;;8.88;;
52964;SDS011;42923;53.220;6.528;2023-02-10T01:00:55;30.85;;;9.57;;
52964;SDS011;42923;53.220;6.528;2023-02-10T01:03:21;27.13;;;9.00;;
52964;SDS011;42923;53.220;6.528;2023-02-10T01:05:47;37.08;;;10.23;;
52964;SDS011;42923;53.220;6.528;2023-02-10T01:08:14;41.08;;;11.27;;
52964;SDS011;42923;53.220;6.528;2023-02-10T01:10:40;27.65;;;9.32;;
52964;SDS011;42923;53.220;6.528;2023-02-10T01:13:07;27.92;;;10.30;;
52964;SDS011;42923;53.220;6.528;2023-02-10T01:15:33;34.17;;;10.50;;
52964;SDS011;42923;53.220;6.528;2023-02-10T01:18:00;26.58;;;11.63;;
52964;SDS011;42923;53.220;6.528;2023-02-10T01:20:26;45.85;;;10.40;;
52964;SDS011;42923;53.220;6.528;2023-02-10T01:22:52;31.00;;;9.90;;
52964;SDS011;42923;53.220;6.528;2023-02-10T01:25:18;31.73;;;10.80;;
52964;SDS011;42923;53.220;6.528;2023-02-10T01:27:44;31.67;;;10.93;;
52964;SDS011;42923;53.220;6.528;2023-02-10T01:30:10;33.80;;;10.10;;
52964;SDS011;42923;53.220;6.528;2023-02-10T01:32:35;32.28;;;9.48;;
52964;SDS011;42923;53.220;6.528;2023-02-10T01:35:02;29.25;;;10.55;;
52964;SDS011;42923;53.220;6.528;2023-02-10T01:37:29;29.30;;;8.45;;
52964;SDS011;42923;53.220;6.528;2023-02-10T01:39:55;34.67;;;10.48;;
52964;SDS011;42923;53.220;6.528;2023-02-10T01:42:21;29.25;;;9.40;;
52964;SDS011;42923;53.220;6.528;2023-02-10T01:47:12;36.97;;;9.25;;
52964;SDS011;42923;53.220;6.528;2023-02-10T01:49:44;32.58;;;8.98;;
52964;SDS011;42923;53.220;6.528;2023-02-10T01:52:18;25.95;;;8.40;;
52964;SDS011;42923;53.220;6.528;2023-02-10T01:54:49;40.95;;;12.38;;
52964;SDS011;42923;53.220;6.528;2023-02-10T01:57:36;22.95;;;8.52;;
52964;SDS011;42923;53.220;6.528;2023-02-10T02:00:05;35.30;;;8.88;;
52964;SDS011;42923;53.220;6.528;2023-02-10T02:02:39;20.20;;;7.93;;
52964;SDS011;42923;53.220;6.528;2023-02-10T02:05:15;28.77;;;9.77;;
52964;SDS011;42923;53.220;6.528;2023-02-10T02:07:55;27.65;;;8.15;;
52964;SDS011;42923;53.220;6.528;2023-02-10T02:10:24;29.98;;;8.35;;
52964;SDS011;42923;53.220;6.528;2023-02-10T02:13:11;34.90;;;10.65;;
52964;SDS011;42923;53.220;6.528;2023-02-10T02:15:57;26.27;;;9.25;;
52964;SDS011;42923;53.220;6.528;2023-02-10T02:18:36;33.88;;;8.00;;
52964;SDS011;42923;53.220;6.528;2023-02-10T02:32:38;32.85;;;8.55;;
52964;SDS011;42923;53.220;6.528;2023-02-10T02:35:10;26.80;;;7.72;;
52964;SDS011;42923;53.220;6.528;2023-02-10T02:37:44;21.23;;;7.35;;
52964;SDS011;42923;53.220;6.528;2023-02-10T02:40:13;21.17;;;7.28;;
52964;SDS011;42923;53.220;6.528;2023-02-10T02:42:40;24.98;;;6.43;;
52964;SDS011;42923;53.220;6.528;2023-02-10T03:01:06;23.15;;;8.13;;
52964;SDS011;42923;53.220;6.528;2023-02-10T03:03:36;22.48;;;7.63;;
52964;SDS011;42923;53.220;6.528;2023-02-10T03:06:02;24.10;;;7.60;;
52964;SDS011;42923;53.220;6.528;2023-02-10T03:08:29;34.58;;;9.02;;
52964;SDS011;42923;53.220;6.528;2023-02-10T03:10:57;31.95;;;9.48;;
52964;SDS011;42923;53.220;6.528;2023-02-10T03:13:23;32.30;;;8.30;;
52964;SDS011;42923;53.220;6.528;2023-02-10T03:15:49;24.30;;;8.20;;
52964;SDS011;42923;53.220;6.528;2023-02-10T03:18:15;33.47;;;9.15;;
52964;SDS011;42923;53.220;6.528;2023-02-10T03:20:41;34.03;;;8.23;;
52964;SDS011;42923;53.220;6.528;2023-02-10T03:23:06;35.92;;;8.77;;
52964;SDS011;42923;53.220;6.528;2023-02-10T03:25:32;25.52;;;7.70;;
52964;SDS011;42923;53.220;6.528;2023-02-10T03:28:00;31.40;;;9.07;;
52964;SDS011;42923;53.220;6.528;2023-02-10T03:30:26;27.80;;;9.30;;
52964;SDS011;42923;53.220;6.528;2023-02-10T03:32:52;31.75;;;9.27;;
52964;SDS011;42923;53.220;6.528;2023-02-10T03:35:18;27.05;;;9.07;;
52964;SDS011;42923;53.220;6.528;2023-02-10T03:37:45;27.25;;;9.73;;
52964;SDS011;42923;53.220;6.528;2023-02-10T03:40:10;28.63;;;8.93;;
52964;SDS011;42923;53.220;6.528;2023-02-10T03:42:37;30.45;;;8.80;;
52964;SDS011;42923;53.220;6.528;2023-02-10T03:45:03;26.85;;;9.52;;
52964;SDS011;42923;53.220;6.528;2023-02-10T03:47:29;36.97;;;8.85;;
52964;SDS011;42923;53.220;6.528;2023-02-10T03:49:54;27.15;;;8.20;;
52964;SDS011;42923;53.220;6.528;2023-02-10T03:52:20;34.95;;;8.88;;
52964;SDS011;42923;53.220;6.528;2023-02-10T03:54:47;34.95;;;7.88;;
52964;SDS011;42923;53.220;6.528;2023-02-10T03:57:12;22.95;;;7.60;;
52964;SDS011;42923;53.220;6.528;2023-02-10T03:59:38;34.42;;;7.97;;
52964;SDS011;42923;53.220;6.528;2023-02-10T04:02:04;23.13;;;7.60;;
52964;SDS011;42923;53.220;6.528;2023-02-10T04:04:30;30.10;;;7.90;;
52964;SDS011;42923;53.220;6.528;2023-02-10T04:06:55;28.50;;;6.70;;
52964;SDS011;42923;53.220;6.528;2023-02-10T04:09:21;30.17;;;8.23;;
52964;SDS011;42923;53.220;6.528;2023-02-10T04:11:47;26.40;;;7.00;;
52964;SDS011;42923;53.220;6.528;2023-02-10T04:14:13;21.08;;;7.03;;
52964;SDS011;42923;53.220;6.528;2023-02-10T04:16:39;27.08;;;8.40;;
52964;SDS011;42923;53.220;6.528;2023-02-10T04:19:05;22.90;;;8.25;;
52964;SDS011;42923;53.220;6.528;2023-02-10T04:21:30;23.15;;;7.22;;
52964;SDS011;42923;53.220;6.528;2023-02-10T04:23:56;25.70;;;8.15;;
52964;SDS011;42923;53.220;6.528;2023-02-10T04:26:22;22.92;;;8.68;;
52964;SDS011;42923;53.220;6.528;2023-02-10T04:28:48;29.42;;;8.10;;
52964;SDS011;42923;53.220;6.528;2023-02-10T04:31:13;30.73;;;8.45;;
52964;SDS011;42923;53.220;6.528;2023-02-10T04:33:40;30.20;;;8.55;;
52964;SDS011;42923;53.220;6.528;2023-02-10T04:36:06;31.75;;;7.80;;
52964;SDS011;42923;53.220;6.528;2023-02-10T04:38:32;33.92;;;8.43;;
52964;SDS011;42923;53.220;6.528;2023-02-10T04:40:58;30.98;;;8.98;;
52964;SDS011;42923;53.220;6.528;2023-02-10T04:43:24;25.88;;;7.78;;
52964;SDS011;42923;53.220;6.528;2023-02-10T04:45:49;34.63;;;7.95;;
52964;SDS011;42923;53.220;6.528;2023-02-10T04:48:15;24.58;;;8.05;;
52964;SDS011;42923;53.220;6.528;2023-02-10T04:50:41;30.75;;;7.35;;
52964;SDS011;42923;53.220;6.528;2023-02-10T04:53:08;31.23;;;8.57;;
52964;SDS011;42923;53.220;6.528;2023-02-10T04:55:34;28.58;;;7.68;;
52964;SDS011;42923;53.220;6.528;2023-02-10T04:58:00;26.17;;;8.43;;
52964;SDS011;42923;53.220;6.528;2023-02-10T05:00:26;24.75;;;9.15;;
52964;SDS011;42923;53.220;6.528;2023-02-10T05:02:52;25.40;;;8.32;;
52964;SDS011;42923;53.220;6.528;2023-02-10T05:05:18;30.30;;;7.85;;
52964;SDS011;42923;53.220;6.528;2023-02-10T05:07:44;19.92;;;7.13;;
52964;SDS011;42923;53.220;6.528;2023-02-10T05:10:10;30.33;;;8.27;;
52964;SDS011;42923;53.220;6.528;2023-02-10T05:12:36;31.23;;;8.05;;
52964;SDS011;42923;53.220;6.528;2023-02-10T05:15:02;28.92;;;7.72;;
52964;SDS011;42923;53.220;6.528;2023-02-10T05:17:28;23.77;;;7.90;;
52964;SDS011;42923;53.220;6.528;2023-02-10T05:19:54;23.17;;;7.20;;
52964;SDS011;42923;53.220;6.528;2023-02-10T05:22:19;29.40;;;7.75;;
52964;SDS011;42923;53.220;6.528;2023-02-10T05:24:47;16.85;;;7.55;;
52964;SDS011;42923;53.220;6.528;2023-02-10T05:27:14;21.88;;;7.93;;
52964;SDS011;42923;53.220;6.528;2023-02-10T05:29:40;25.58;;;7.47;;
52964;SDS011;42923;53.220;6.528;2023-02-10T05:32:06;27.85;;;7.57;;
52964;SDS011;42923;53.220;6.528;2023-02-10T05:34:31;27.33;;;8.02;;
52964;SDS011;42923;53.220;6.528;2023-02-10T05:36:57;28.92;;;8.05;;
52964;SDS011;42923;53.220;6.528;2023-02-10T05:39:22;28.70;;;7.15;;
52964;SDS011;42923;53.220;6.528;2023-02-10T05:41:49;20.27;;;7.43;;
52964;SDS011;42923;53.220;6.528;2023-02-10T05:44:19;27.52;;;7.97;;
52964;SDS011;42923;53.220;6.528;2023-02-10T05:46:45;25.08;;;7.88;;
52964;SDS011;42923;53.220;6.528;2023-02-10T05:49:14;24.55;;;8.75;;
52964;SDS011;42923;53.220;6.528;2023-02-10T05:51:40;38.72;;;8.05;;
52964;SDS011;42923;53.220;6.528;2023-02-10T05:54:06;28.77;;;9.68;;
52964;SDS011;42923;53.220;6.528;2023-02-10T05:56:32;25.60;;;8.73;;
52964;SDS011;42923;53.220;6.528;2023-02-10T05:58:58;24.00;;;8.50;;
52964;SDS011;42923;53.220;6.528;2023-02-10T06:01:23;25.67;;;9.50;;
52964;SDS011;42923;53.220;6.528;2023-02-10T06:03:49;29.65;;;8.82;;
52964;SDS011;42923;53.220;6.528;2023-02-10T06:06:15;36.97;;;9.18;;
52964;SDS011;42923;53.220;6.528;2023-02-10T06:08:41;29.38;;;8.38;;
52964;SDS011;42923;53.220;6.528;2023-02-10T06:11:10;21.73;;;8.48;;
52964;SDS011;42923;53.220;6.528;2023-02-10T06:13:36;24.10;;;9.05;;
52964;SDS011;42923;53.220;6.528;2023-02-10T06:16:02;28.10;;;8.75;;
52964;SDS011;42923;53.220;6.528;2023-02-10T06:18:28;25.08;;;9.32;;
52964;SDS011;42923;53.220;6.528;2023-02-10T06:20:55;26.77;;;11.07;;
52964;SDS011;42923;53.220;6.528;2023-02-10T06:23:21;24.65;;;8.93;;
52964;SDS011;42923;53.220;6.528;2023-02-10T06:25:48;20.27;;;8.65;;
52964;SDS011;42923;53.220;6.528;2023-02-10T06:28:16;34.25;;;10.02;;
52964;SDS011;42923;53.220;6.528;2023-02-10T06:30:41;26.85;;;9.23;;
52964;SDS011;42923;53.220;6.528;2023-02-10T06:33:07;35.25;;;9.32;;
52964;SDS011;42923;53.220;6.528;2023-02-10T06:35:33;30.30;;;9.73;;
52964;SDS011;42923;53.220;6.528;2023-02-10T06:37:59;34.55;;;8.82;;
52964;SDS011;42923;53.220;6.528;2023-02-10T06:40:24;24.55;;;9.65;;
52964;SDS011;42923;53.220;6.528;2023-02-10T06:42:50;20.65;;;8.48;;
52964;SDS011;42923;53.220;6.528;2023-02-10T06:45:16;29.45;;;10.25;;
52964;SDS011;42923;53.220;6.528;2023-02-10T06:47:41;40.47;;;10.45;;
52964;SDS011;42923;53.220;6.528;2023-02-10T06:50:07;39.38;;;9.50;;
52964;SDS011;42923;53.220;6.528;2023-02-10T06:52:34;27.58;;;9.70;;
52964;SDS011;42923;53.220;6.528;2023-02-10T06:55:03;26.65;;;9.35;;
52964;SDS011;42923;53.220;6.528;2023-02-10T06:57:30;17.48;;;8.18;;
52964;SDS011;42923;53.220;6.528;2023-02-10T06:59:56;28.73;;;9.43;;
52964;SDS011;42923;53.220;6.528;2023-02-10T07:02:24;23.98;;;8.45;;
52964;SDS011;42923;53.220;6.528;2023-02-10T07:04:50;26.77;;;8.73;;
52964;SDS011;42923;53.220;6.528;2023-02-10T07:07:16;26.33;;;8.90;;
52964;SDS011;42923;53.220;6.528;2023-02-10T07:09:42;33.38;;;10.98;;
52964;SDS011;42923;53.220;6.528;2023-02-10T07:12:07;22.85;;;9.35;;
52964;SDS011;42923;53.220;6.528;2023-02-10T07:14:33;18.85;;;8.15;;
52964;SDS011;42923;53.220;6.528;2023-02-10T07:17:00;23.73;;;8.05;;
52964;SDS011;42923;53.220;6.528;2023-02-10T07:19:25;27.88;;;9.40;;
52964;SDS011;42923;53.220;6.528;2023-02-10T07:21:52;29.58;;;8.75;;
52964;SDS011;42923;53.220;6.528;2023-02-10T07:24:18;31.92;;;9.52;;
52964;SDS011;42923;53.220;6.528;2023-02-10T07:26:43;21.58;;;10.50;;
52964;SDS011;42923;53.220;6.528;2023-02-10T07:29:09;26.63;;;9.85;;
52964;SDS011;42923;53.220;6.528;2023-02-10T07:31:35;21.90;;;9.50;;
52964;SDS011;42923;53.220;6.528;2023-02-10T07:34:02;27.80;;;10.30;;
52964;SDS011;42923;53.220;6.528;2023-02-10T07:36:28;28.63;;;9.55;;
52964;SDS011;42923;53.220;6.528;2023-02-10T07:38:53;32.05;;;9.88;;
52964;SDS011;42923;53.220;6.528;2023-02-10T07:41:19;31.08;;;9.82;;
52964;SDS011;42923;53.220;6.528;2023-02-10T07:43:45;28.75;;;9.95;;
52964;SDS011;42923;53.220;6.528;2023-02-10T07:46:14;24.05;;;9.73;;
52964;SDS011;42923;53.220;6.528;2023-02-10T07:48:40;21.08;;;8.70;;
52964;SDS011;42923;53.220;6.528;2023-02-10T07:51:06;32.10;;;10.65;;
52964;SDS011;42923;53.220;6.528;2023-02-10T07:53:32;31.92;;;9.48;;
52964;SDS011;42923;53.220;6.528;2023-02-10T07:55:58;28.90;;;10.48;;
52964;SDS011;42923;53.220;6.528;2023-02-10T07:58:25;30.42;;;9.35;;
52964;SDS011;42923;53.220;6.528;2023-02-10T08:00:51;28.13;;;10.25;;
52964;SDS011;42923;53.220;6.528;2023-02-10T08:03:16;27.35;;;9.63;;
52964;SDS011;42923;53.220;6.528;2023-02-10T08:05:42;18.52;;;9.13;;
52964;SDS011;42923;53.220;6.528;2023-02-10T08:08:09;29.58;;;12.35;;
52964;SDS011;42923;53.220;6.528;2023-02-10T08:10:36;30.70;;;10.40;;
52964;SDS011;42923;53.220;6.528;2023-02-10T08:13:02;20.90;;;9.75;;
52964;SDS011;42923;53.220;6.528;2023-02-10T08:15:27;23.20;;;8.68;;
52964;SDS011;42923;53.220;6.528;2023-02-10T08:17:53;25.13;;;8.63;;
52964;SDS011;42923;53.220;6.528;2023-02-10T08:20:19;24.27;;;8.38;;
52964;SDS011;42923;53.220;6.528;2023-02-10T08:22:45;24.50;;;9.38;;
52964;SDS011;42923;53.220;6.528;2023-02-10T08:25:10;28.38;;;9.68;;
52964;SDS011;42923;53.220;6.528;2023-02-10T08:27:36;18.58;;;7.50;;
52964;SDS011;42923;53.220;6.528;2023-02-10T08:30:02;22.85;;;10.55;;
52964;SDS011;42923;53.220;6.528;2023-02-10T08:32:30;19.65;;;9.02;;
52964;SDS011;42923;53.220;6.528;2023-02-10T08:34:56;20.80;;;8.60;;
52964;SDS011;42923;53.220;6.528;2023-02-10T08:37:22;19.55;;;8.45;;
52964;SDS011;42923;53.220;6.528;2023-02-10T08:39:48;20.92;;;9.65;;
52964;SDS011;42923;53.220;6.528;2023-02-10T08:42:13;15.05;;;7.18;;
52964;SDS011;42923;53.220;6.528;2023-02-10T08:44:39;19.85;;;8.98;;
52964;SDS011;42923;53.220;6.528;2023-02-10T08:47:05;23.42;;;8.98;;
52964;SDS011;42923;53.220;6.528;2023-02-10T08:49:31;22.77;;;9.35;;
52964;SDS011;42923;53.220;6.528;2023-02-10T08:51:56;28.92;;;10.32;;
52964;SDS011;42923;53.220;6.528;2023-02-10T08:54:22;25.33;;;8.85;;
52964;SDS011;42923;53.220;6.528;2023-02-10T08:56:48;24.95;;;9.18;;
52964;SDS011;42923;53.220;6.528;2023-02-10T08:59:18;23.30;;;9.85;;
52964;SDS011;42923;53.220;6.528;2023-02-10T09:01:44;21.13;;;8.73;;
52964;SDS011;42923;53.220;6.528;2023-02-10T09:04:10;23.98;;;9.05;;
52964;SDS011;42923;53.220;6.528;2023-02-10T09:06:37;29.88;;;9.35;;
52964;SDS011;42923;53.220;6.528;2023-02-10T09:09:09;18.05;;;9.98;;
52964;SDS011;42923;53.220;6.528;2023-02-10T09:11:39;21.15;;;9.77;;
52964;SDS011;42923;53.220;6.528;2023-02-10T09:14:06;22.60;;;11.00;;
52964;SDS011;42923;53.220;6.528;2023-02-10T09:16:33;19.42;;;8.95;;
52964;SDS011;42923;53.220;6.528;2023-02-10T09:18:59;19.45;;;7.35;;
52964;SDS011;42923;53.220;6.528;2023-02-10T09:21:24;25.58;;;10.07;;
52964;SDS011;42923;53.220;6.528;2023-02-10T09:23:50;21.70;;;9.43;;
52964;SDS011;42923;53.220;6.528;2023-02-10T09:26:17;22.75;;;9.50;;
52964;SDS011;42923;53.220;6.528;2023-02-10T09:28:43;21.52;;;7.68;;
52964;SDS011;42923;53.220;6.528;2023-02-10T09:31:11;15.40;;;8.68;;
52964;SDS011;42923;53.220;6.528;2023-02-10T09:33:37;20.63;;;8.82;;
52964;SDS011;42923;53.220;6.528;2023-02-10T09:36:07;20.63;;;9.25;;
52964;SDS011;42923;53.220;6.528;2023-02-10T09:38:39;23.25;;;9.10;;
52964;SDS011;42923;53.220;6.528;2023-02-10T09:43:54;21.10;;;8.90;;
52964;SDS011;42923;53.220;6.528;2023-02-10T09:49:04;12.50;;;6.30;;
52964;SDS011;42923;53.220;6.528;2023-02-10T09:52:01;14.18;;;6.47;;
52964;SDS011;42923;53.220;6.528;2023-02-10T09:54:37;18.70;;;5.70;;
52964;SDS011;42923;53.220;6.528;2023-02-10T09:57:05;15.63;;;7.78;;
52964;SDS011;42923;53.220;6.528;2023-02-10T09:59:37;14.75;;;7.13;;
52964;SDS011;42923;53.220;6.528;2023-02-10T10:02:19;13.30;;;7.90;;
52964;SDS011;42923;53.220;6.528;2023-02-10T10:08:15;14.80;;;7.70;;
52964;SDS011;42923;53.220;6.528;2023-02-10T10:11:01;16.67;;;6.97;;
52964;SDS011;42923;53.220;6.528;2023-02-10T10:13:34;12.98;;;7.72;;
52964;SDS011;42923;53.220;6.528;2023-02-10T10:16:03;20.70;;;7.97;;
52964;SDS011;42923;53.220;6.528;2023-02-10T10:18:41;17.65;;;7.53;;
52964;SDS011;42923;53.220;6.528;2023-02-10T10:21:36;20.95;;;7.78;;
52964;SDS011;42923;53.220;6.528;2023-02-10T10:24:25;25.25;;;9.07;;
52964;SDS011;42923;53.220;6.528;2023-02-10T10:30:40;16.55;;;7.78;;
52964;SDS011;42923;53.220;6.528;2023-02-10T10:33:22;19.52;;;8.73;;
52964;SDS011;42923;53.220;6.528;2023-02-10T10:36:15;19.92;;;7.63;;
52964;SDS011;42923;53.220;6.528;2023-02-10T10:38:53;25.33;;;7.07;;
52964;SDS011;42923;53.220;6.528;2023-02-10T10:41:23;17.20;;;6.88;;
52964;SDS011;42923;53.220;6.528;2023-02-10T10:43:54;17.80;;;8.10;;
52964;SDS011;42923;53.220;6.528;2023-02-10T10:46:40;16.10;;;7.93;;
52964;SDS011;42923;53.220;6.528;2023-02-10T10:49:17;20.20;;;8.07;;
52964;SDS011;42923;53.220;6.528;2023-02-10T10:51:44;18.40;;;8.45;;
52964;SDS011;42923;53.220;6.528;2023-02-10T10:54:19;23.55;;;8.85;;
52964;SDS011;42923;53.220;6.528;2023-02-10T10:56:53;19.35;;;7.65;;
52964;SDS011;42923;53.220;6.528;2023-02-10T11:02:20;12.93;;;7.50;;
52964;SDS011;42923;53.220;6.528;2023-02-10T11:05:00;16.65;;;7.07;;
52964;SDS011;42923;53.220;6.528;2023-02-10T11:07:28;20.30;;;8.15;;
52964;SDS011;42923;53.220;6.528;2023-02-10T11:09:57;19.90;;;9.80;;
52964;SDS011;42923;53.220;6.528;2023-02-10T11:12:27;28.10;;;9.88;;
52964;SDS011;42923;53.220;6.528;2023-02-10T11:14:59;17.27;;;7.67;;
52964;SDS011;42923;53.220;6.528;2023-02-10T11:17:30;18.48;;;7.57;;
52964;SDS011;42923;53.220;6.528;2023-02-10T11:20:02;19.63;;;8.10;;
52964;SDS011;42923;53.220;6.528;2023-02-10T11:22:54;20.50;;;8.27;;
52964;SDS011;42923;53.220;6.528;2023-02-10T11:27:52;21.13;;;7.63;;
52964;SDS011;42923;53.220;6.528;2023-02-10T11:30:26;20.25;;;7.55;;
52964;SDS011;42923;53.220;6.528;2023-02-10T11:32:54;17.75;;;7.15;;
52964;SDS011;42923;53.220;6.528;2023-02-10T11:35:20;16.13;;;7.35;;
52964;SDS011;42923;53.220;6.528;2023-02-10T11:37:51;26.55;;;7.75;;
52964;SDS011;42923;53.220;6.528;2023-02-10T11:40:24;17.77;;;6.70;;
52964;SDS011;42923;53.220;6.528;2023-02-10T11:42:56;11.82;;;5.32;;
52964;SDS011;42923;53.220;6.528;2023-02-10T11:45:32;15.48;;;5.53;;
52964;SDS011;42923;53.220;6.528;2023-02-10T11:50:33;15.20;;;6.30;;
52964;SDS011;42923;53.220;6.528;2023-02-10T11:53:00;14.45;;;6.25;;
52964;SDS011;42923;53.220;6.528;2023-02-10T11:55:46;16.08;;;6.30;;
52964;SDS011;42923;53.220;6.528;2023-02-10T11:58:39;19.85;;;6.07;;
52964;SDS011;42923;53.220;6.528;2023-02-10T12:01:37;18.75;;;5.82;;
52964;SDS011;42923;53.220;6.528;2023-02-10T12:06:55;23.10;;;5.88;;
52964;SDS011;42923;53.220;6.528;2023-02-10T12:12:05;15.65;;;5.22;;
52964;SDS011;42923;53.220;6.528;2023-02-10T12:17:24;11.98;;;5.00;;
52964;SDS011;42923;53.220;6.528;2023-02-10T12:22:34;10.88;;;4.78;;
52964;SDS011;42923;53.220;6.528;2023-02-10T12:25:46;15.40;;;4.72;;
52964;SDS011;42923;53.220;6.528;2023-02-10T12:28:16;16.63;;;4.18;;
52964;SDS011;42923;53.220;6.528;2023-02-10T12:31:53;13.30;;;3.90;;
52964;SDS011;42923;53.220;6.528;2023-02-10T12:43:01;13.05;;;4.57;;
52964;SDS011;42923;53.220;6.528;2023-02-10T12:48:40;11.02;;;3.83;;
52964;SDS011;42923;53.220;6.528;2023-02-10T12:53:52;16.00;;;4.57;;
52964;SDS011;42923;53.220;6.528;2023-02-10T12:56:30;15.50;;;4.70;;
52964;SDS011;42923;53.220;6.528;2023-02-10T13:01:43;10.18;;;3.25;;
52964;SDS011;42923;53.220;6.528;2023-02-10T13:06:57;8.88;;;2.80;;
52964;SDS011;42923;53.220;6.528;2023-02-10T13:09:43;13.55;;;3.47;;
52964;SDS011;42923;53.220;6.528;2023-02-10T13:12:15;20.25;;;5.95;;
52964;SDS011;42923;53.220;6.528;2023-02-10T13:14:48;12.70;;;4.32;;
52964;SDS011;42923;53.220;6.528;2023-02-10T13:17:17;8.25;;;3.17;;
52964;SDS011;42923;53.220;6.528;2023-02-10T13:22:45;15.45;;;4.50;;
52964;SDS011;42923;53.220;6.528;2023-02-10T13:28:37;7.93;;;3.95;;
52964;SDS011;42923;53.220;6.528;2023-02-10T13:36:30;11.27;;;3.75;;
52964;SDS011;42923;53.220;6.528;2023-02-10T13:39:06;17.40;;;4.85;;
52964;SDS011;42923;53.220;6.528;2023-02-10T13:41:46;14.13;;;4.68;;
52964;SDS011;42923;53.220;6.528;2023-02-10T13:44:19;11.95;;;4.78;;
52964;SDS011;42923;53.220;6.528;2023-02-10T13:49:38;9.77;;;3.45;;
52964;SDS011;42923;53.220;6.528;2023-02-10T13:52:28;8.50;;;3.65;;
52964;SDS011;42923;53.220;6.528;2023-02-10T13:57:27;16.00;;;4.50;;
52964;SDS011;42923;53.220;6.528;2023-02-10T14:00:09;10.65;;;3.13;;
52964;SDS011;42923;53.220;6.528;2023-02-10T14:02:38;14.85;;;3.65;;
52964;SDS011;42923;53.220;6.528;2023-02-10T14:05:19;11.25;;;3.85;;
52964;SDS011;42923;53.220;6.528;2023-02-10T14:07:51;10.55;;;4.38;;
52964;SDS011;42923;53.220;6.528;2023-02-10T14:15:31;9.52;;;4.13;;
52964;SDS011;42923;53.220;6.528;2023-02-10T14:18:05;10.93;;;3.60;;
52964;SDS011;42923;53.220;6.528;2023-02-10T14:21:05;20.88;;;4.05;;
52964;SDS011;42923;53.220;6.528;2023-02-10T14:23:36;13.10;;;4.07;;
52964;SDS011;42923;53.220;6.528;2023-02-10T14:26:07;11.30;;;3.40;;
52964;SDS011;42923;53.220;6.528;2023-02-10T14:28:58;10.57;;;4.00;;
52964;SDS011;42923;53.220;6.528;2023-02-10T14:31:30;12.60;;;4.10;;
52964;SDS011;42923;53.220;6.528;2023-02-10T14:33:59;16.00;;;4.55;;
52964;SDS011;42923;53.220;6.528;2023-02-10T14:36:27;8.45;;;3.13;;
52964;SDS011;42923;53.220;6.528;2023-02-10T14:38:54;18.92;;;5.47;;
52964;SDS011;42923;53.220;6.528;2023-02-10T14:41:22;12.40;;;4.28;;
52964;SDS011;42923;53.220;6.528;2023-02-10T14:43:49;11.18;;;4.70;;
52964;SDS011;42923;53.220;6.528;2023-02-10T14:46:20;9.75;;;3.42;;
52964;SDS011;42923;53.220;6.528;2023-02-10T14:48:48;14.57;;;4.93;;
52964;SDS011;42923;53.220;6.528;2023-02-10T14:51:21;13.63;;;4.32;;
52964;SDS011;42923;53.220;6.528;2023-02-10T14:53:48;14.63;;;5.40;;
52964;SDS011;42923;53.220;6.528;2023-02-10T14:56:19;20.20;;;5.00;;
52964;SDS011;42923;53.220;6.528;2023-02-10T14:58:49;14.88;;;4.43;;
52964;SDS011;42923;53.220;6.528;2023-02-10T15:01:36;10.70;;;4.40;;
52964;SDS011;42923;53.220;6.528;2023-02-10T15:04:01;9.27;;;4.38;;
52964;SDS011;42923;53.220;6.528;2023-02-10T15:06:30;15.73;;;4.38;;
52964;SDS011;42923;53.220;6.528;2023-02-10T15:11:30;12.45;;;4.20;;
52964;SDS011;42923;53.220;6.528;2023-02-10T15:14:22;9.95;;;4.65;;
52964;SDS011;42923;53.220;6.528;2023-02-10T15:16:52;22.25;;;5.10;;
52964;SDS011;42923;53.220;6.528;2023-02-10T15:19:21;10.70;;;5.15;;
52964;SDS011;42923;53.220;6.528;2023-02-10T15:21:47;13.60;;;5.35;;
52964;SDS011;42923;53.220;6.528;2023-02-10T15:24:25;9.88;;;4.43;;
52964;SDS011;42923;53.220;6.528;2023-02-10T15:26:52;13.13;;;4.80;;
52964;SDS011;42923;53.220;6.528;2023-02-10T15:29:18;13.73;;;5.30;;
52964;SDS011;42923;53.220;6.528;2023-02-10T15:31:51;9.75;;;4.15;;
52964;SDS011;42923;53.220;6.528;2023-02-10T15:34:24;10.68;;;4.38;;
52964;SDS011;42923;53.220;6.528;2023-02-10T15:36:55;12.50;;;4.30;;
52964;SDS011;42923;53.220;6.528;2023-02-10T15:39:36;13.15;;;4.70;;
52964;SDS011;42923;53.220;6.528;2023-02-10T15:44:41;14.00;;;4.57;;
52964;SDS011;42923;53.220;6.528;2023-02-10T15:47:21;14.32;;;5.93;;
52964;SDS011;42923;53.220;6.528;2023-02-10T15:49:52;14.98;;;4.57;;
52964;SDS011;42923;53.220;6.528;2023-02-10T15:52:26;14.15;;;5.65;;
52964;SDS011;42923;53.220;6.528;2023-02-10T15:54:56;23.35;;;7.15;;
52964;SDS011;42923;53.220;6.528;2023-02-10T15:57:25;12.15;;;5.95;;
52964;SDS011;42923;53.220;6.528;2023-02-10T15:59:51;14.15;;;5.50;;
52964;SDS011;42923;53.220;6.528;2023-02-10T16:02:19;13.45;;;6.55;;
52964;SDS011;42923;53.220;6.528;2023-02-10T16:04:45;14.30;;;5.55;;
52964;SDS011;42923;53.220;6.528;2023-02-10T16:07:17;17.40;;;6.28;;
52964;SDS011;42923;53.220;6.528;2023-02-10T16:09:49;13.65;;;6.38;;
52964;SDS011;42923;53.220;6.528;2023-02-10T16:12:15;10.77;;;5.82;;
52964;SDS011;42923;53.220;6.528;2023-02-10T16:14:40;17.50;;;6.45;;
52964;SDS011;42923;53.220;6.528;2023-02-10T16:17:06;13.93;;;6.32;;
52964;SDS011;42923;53.220;6.528;2023-02-10T16:19:32;16.45;;;5.97;;
52964;SDS011;42923;53.220;6.528;2023-02-10T16:21:58;13.02;;;5.40;;
52964;SDS011;42923;53.220;6.528;2023-02-10T16:24:25;13.80;;;5.80;;
52964;SDS011;42923;53.220;6.528;2023-02-10T16:26:56;17.67;;;7.18;;
52964;SDS011;42923;53.220;6.528;2023-02-10T16:29:23;13.18;;;5.68;;
52964;SDS011;42923;53.220;6.528;2023-02-10T16:31:51;10.80;;;5.40;;
52964;SDS011;42923;53.220;6.528;2023-02-10T16:34:17;13.52;;;6.60;;
52964;SDS011;42923;53.220;6.528;2023-02-10T16:36:43;12.45;;;5.47;;